Terminal Aerodrome Forecast
Issued by NWS

Current Version | Previous Version | Graphics & Text | Print | Product List | Glossary On
Versions: 1 2 3 4 5 6 7 8 9 10 11 12 13 14 15 16 17 18 19 20 21
119
FTUS41 KPBZ 271412 AAA
TAFHLG
TAF AMD
KHLG 271412Z 2714/2812 11004KT P6SM SCT004 OVC025
      TEMPO 2714/2716 BKN004
     FM271800 05004KT P6SM BKN050
     FM280000 01003KT P6SM SCT050=

USA.gov is the U.S. government's official web portal to all federal, state and local government web resources and services.